sensor_id;sensor_type;location;lat;lon;timestamp;pressure;altitude;pressure_sealevel;temperature;humidity
68489;BME280;55481;48.764;8.936;2023-02-18T00:01:18;97880;;;11.2;69.5
68489;BME280;55481;48.764;8.936;2023-02-18T00:03:43;97880;;;11.2;69.5
68489;BME280;55481;48.764;8.936;2023-02-18T00:06:16;97880;;;11.2;69.5
68489;BME280;55481;48.764;8.936;2023-02-18T00:08:45;97880;;;11.2;69.5
68489;BME280;55481;48.764;8.936;2023-02-18T00:11:16;97880;;;11.2;69.5
68489;BME280;55481;48.764;8.936;2023-02-18T00:13:50;97880;;;11.2;69.5
68489;BME280;55481;48.764;8.936;2023-02-18T00:23:50;97880;;;11.1;69.5
68489;BME280;55481;48.764;8.936;2023-02-18T00:28:57;97880;;;11.1;69.5
68489;BME280;55481;48.764;8.936;2023-02-18T00:31:29;97880;;;11;70
68489;BME280;55481;48.764;8.936;2023-02-18T00:33:59;97890;;;11;70
68489;BME280;55481;48.764;8.936;2023-02-18T00:36:26;97890;;;10.9;70
68489;BME280;55481;48.764;8.936;2023-02-18T00:39:07;97890;;;10.9;70
68489;BME280;55481;48.764;8.936;2023-02-18T00:41:26;97880;;;11.1;69.5
68489;BME280;55481;48.764;8.936;2023-02-18T00:43:56;97880;;;11.1;69.5
68489;BME280;55481;48.764;8.936;2023-02-18T00:51:28;97880;;;11;70
68489;BME280;55481;48.764;8.936;2023-02-18T00:53:59;97880;;;11;69.5
68489;BME280;55481;48.764;8.936;2023-02-18T00:59:06;97870;;;11.1;69.5
68489;BME280;55481;48.764;8.936;2023-02-18T01:01:37;97870;;;11;69.5
68489;BME280;55481;48.764;8.936;2023-02-18T01:09:04;97870;;;11;70
68489;BME280;55481;48.764;8.936;2023-02-18T01:11:34;97870;;;10.9;70
68489;BME280;55481;48.764;8.936;2023-02-18T01:14:05;97870;;;10.9;70
68489;BME280;55481;48.764;8.936;2023-02-18T01:16:36;97860;;;10.9;70
68489;BME280;55481;48.764;8.936;2023-02-18T01:19:06;97860;;;10.9;70
68489;BME280;55481;48.764;8.936;2023-02-18T01:21:37;97860;;;10.9;70
68489;BME280;55481;48.764;8.936;2023-02-18T01:26:38;97850;;;10.9;70
68489;BME280;55481;48.764;8.936;2023-02-18T01:29:09;97850;;;10.9;69.5
68489;BME280;55481;48.764;8.936;2023-02-18T01:39:18;97840;;;10.8;70
68489;BME280;55481;48.764;8.936;2023-02-18T01:41:49;97840;;;10.8;70
68489;BME280;55481;48.764;8.936;2023-02-18T01:44:22;97830;;;10.8;70
68489;BME280;55481;48.764;8.936;2023-02-18T01:46:51;97830;;;10.7;70
68489;BME280;55481;48.764;8.936;2023-02-18T01:51:47;97830;;;10.6;70
68489;BME280;55481;48.764;8.936;2023-02-18T01:54:18;97820;;;10.7;70
68489;BME280;55481;48.764;8.936;2023-02-18T01:56:50;97820;;;10.7;69.5
68489;BME280;55481;48.764;8.936;2023-02-18T02:04:20;97810;;;10.6;70
68489;BME280;55481;48.764;8.936;2023-02-18T02:06:51;97810;;;10.6;69.5
68489;BME280;55481;48.764;8.936;2023-02-18T02:09:28;97800;;;10.5;69.5
68489;BME280;55481;48.764;8.936;2023-02-18T02:12:05;97810;;;10.6;69.5
68489;BME280;55481;48.764;8.936;2023-02-18T02:22:03;97820;;;10.5;70
68489;BME280;55481;48.764;8.936;2023-02-18T02:27:08;97810;;;10.6;69.5
68489;BME280;55481;48.764;8.936;2023-02-18T02:32:02;97810;;;10.6;70
68489;BME280;55481;48.764;8.936;2023-02-18T02:34:34;97810;;;10.6;69.5
68489;BME280;55481;48.764;8.936;2023-02-18T02:37:05;97810;;;10.5;70
68489;BME280;55481;48.764;8.936;2023-02-18T02:39:39;97810;;;10.6;70
68489;BME280;55481;48.764;8.936;2023-02-18T02:47:07;97800;;;10.6;70
68489;BME280;55481;48.764;8.936;2023-02-18T02:49:38;97800;;;10.5;70
68489;BME280;55481;48.764;8.936;2023-02-18T02:54:42;97790;;;10.5;70
68489;BME280;55481;48.764;8.936;2023-02-18T02:59:45;97790;;;10.5;70
68489;BME280;55481;48.764;8.936;2023-02-18T03:04:42;97790;;;10.5;70
68489;BME280;55481;48.764;8.936;2023-02-18T03:07:10;97800;;;10.5;70
68489;BME280;55481;48.764;8.936;2023-02-18T03:14:43;97790;;;10.4;70
68489;BME280;55481;48.764;8.936;2023-02-18T03:17:45;97790;;;10.4;70
68489;BME280;55481;48.764;8.936;2023-02-18T03:19:46;97790;;;10.3;70
68489;BME280;55481;48.764;8.936;2023-02-18T03:22:22;97790;;;10.4;70
68489;BME280;55481;48.764;8.936;2023-02-18T03:24:52;97780;;;10.5;69.5
68489;BME280;55481;48.764;8.936;2023-02-18T03:27:23;97780;;;10.5;69.5
68489;BME280;55481;48.764;8.936;2023-02-18T03:29:47;97760;;;10.6;69.5
68489;BME280;55481;48.764;8.936;2023-02-18T03:32:17;97770;;;10.5;69.5
68489;BME280;55481;48.764;8.936;2023-02-18T03:34:49;97770;;;10.4;70
68489;BME280;55481;48.764;8.936;2023-02-18T03:37:18;97760;;;10.4;70
68489;BME280;55481;48.764;8.936;2023-02-18T03:44:52;97760;;;10.5;69.5
68489;BME280;55481;48.764;8.936;2023-02-18T03:47:28;97760;;;10.5;69.5
68489;BME280;55481;48.764;8.936;2023-02-18T03:52:29;97770;;;10.8;69.5
68489;BME280;55481;48.764;8.936;2023-02-18T03:57:30;97770;;;10.7;69.5
68489;BME280;55481;48.764;8.936;2023-02-18T04:00:08;97770;;;10.8;69.5
68489;BME280;55481;48.764;8.936;2023-02-18T04:02:33;97770;;;10.8;69.5
68489;BME280;55481;48.764;8.936;2023-02-18T04:07:40;97770;;;10.7;69.5
68489;BME280;55481;48.764;8.936;2023-02-18T04:10:11;97780;;;10.7;69.5
68489;BME280;55481;48.764;8.936;2023-02-18T04:12:41;97770;;;10.6;70
68489;BME280;55481;48.764;8.936;2023-02-18T04:17:36;97760;;;10.6;70
68489;BME280;55481;48.764;8.936;2023-02-18T04:20:07;97760;;;10.5;70
68489;BME280;55481;48.764;8.936;2023-02-18T04:25:15;97760;;;10.3;70.5
68489;BME280;55481;48.764;8.936;2023-02-18T04:27:45;97750;;;10.3;70.5
68489;BME280;55481;48.764;8.936;2023-02-18T04:30:09;97750;;;10.4;70
68489;BME280;55481;48.764;8.936;2023-02-18T04:32:40;97750;;;10.4;70
68489;BME280;55481;48.764;8.936;2023-02-18T04:35:10;97750;;;10.4;70
68489;BME280;55481;48.764;8.936;2023-02-18T04:37:42;97760;;;10.2;70
68489;BME280;55481;48.764;8.936;2023-02-18T04:40:19;97760;;;10.2;70
68489;BME280;55481;48.764;8.936;2023-02-18T04:42:50;97770;;;10.2;70
68489;BME280;55481;48.764;8.936;2023-02-18T04:45:27;97770;;;10.2;70
68489;BME280;55481;48.764;8.936;2023-02-18T04:50:15;97760;;;10;70.5
68489;BME280;55481;48.764;8.936;2023-02-18T04:52:46;97760;;;10;70.5
68489;BME280;55481;48.764;8.936;2023-02-18T04:55:16;97760;;;9.9;70.5
68489;BME280;55481;48.764;8.936;2023-02-18T05:00:13;97760;;;9.8;70.5
68489;BME280;55481;48.764;8.936;2023-02-18T05:02:42;97760;;;9.8;71
68489;BME280;55481;48.764;8.936;2023-02-18T05:10:15;97750;;;9.9;70.5
68489;BME280;55481;48.764;8.936;2023-02-18T05:12:45;97750;;;9.9;70.5
68489;BME280;55481;48.764;8.936;2023-02-18T05:15:16;97760;;;9.8;70.5
68489;BME280;55481;48.764;8.936;2023-02-18T05:17:47;97760;;;9.7;70.5
68489;BME280;55481;48.764;8.936;2023-02-18T05:20:17;97750;;;9.6;71
68489;BME280;55481;48.764;8.936;2023-02-18T05:22:49;97750;;;9.6;70.5
68489;BME280;55481;48.764;8.936;2023-02-18T05:25:19;97750;;;9.7;70.5
68489;BME280;55481;48.764;8.936;2023-02-18T05:27:56;97760;;;9.8;70.5
68489;BME280;55481;48.764;8.936;2023-02-18T05:30:27;97750;;;9.8;70
68489;BME280;55481;48.764;8.936;2023-02-18T05:32:59;97750;;;9.9;70
68489;BME280;55481;48.764;8.936;2023-02-18T05:38:06;97740;;;10.1;69.5
68489;BME280;55481;48.764;8.936;2023-02-18T05:40:50;97750;;;10;70
68489;BME280;55481;48.764;8.936;2023-02-18T05:43:19;97750;;;10;70
68489;BME280;55481;48.764;8.936;2023-02-18T05:45:37;97740;;;10;70
68489;BME280;55481;48.764;8.936;2023-02-18T05:48:07;97740;;;10.1;70
68489;BME280;55481;48.764;8.936;2023-02-18T05:53:01;97740;;;10.1;70
68489;BME280;55481;48.764;8.936;2023-02-18T05:55:32;97740;;;10.1;70
68489;BME280;55481;48.764;8.936;2023-02-18T05:58:02;97750;;;10.1;70
68489;BME280;55481;48.764;8.936;2023-02-18T06:00:33;97750;;;10.1;70.5
68489;BME280;55481;48.764;8.936;2023-02-18T06:03:11;97750;;;10;70.5
68489;BME280;55481;48.764;8.936;2023-02-18T06:10:30;97740;;;9.9;70.5
68489;BME280;55481;48.764;8.936;2023-02-18T06:13:01;97730;;;9.9;70.5
68489;BME280;55481;48.764;8.936;2023-02-18T06:15:31;97730;;;9.9;70.5
68489;BME280;55481;48.764;8.936;2023-02-18T06:20:33;97730;;;9.9;70.5
68489;BME280;55481;48.764;8.936;2023-02-18T06:23:04;97720;;;9.9;70.5
68489;BME280;55481;48.764;8.936;2023-02-18T06:25:41;97730;;;10;70.5
68489;BME280;55481;48.764;8.936;2023-02-18T06:28:12;97730;;;10;70.5
68489;BME280;55481;48.764;8.936;2023-02-18T06:30:44;97730;;;10.1;70
68489;BME280;55481;48.764;8.936;2023-02-18T06:33:07;97730;;;10.2;70
68489;BME280;55481;48.764;8.936;2023-02-18T06:40:40;97730;;;10.3;70
68489;BME280;55481;48.764;8.936;2023-02-18T06:43:10;97740;;;10.4;70
68489;BME280;55481;48.764;8.936;2023-02-18T06:45:41;97740;;;10.4;70
68489;BME280;55481;48.764;8.936;2023-02-18T06:48:13;97740;;;10.4;70
68489;BME280;55481;48.764;8.936;2023-02-18T06:50:49;97740;;;10.4;70
68489;BME280;55481;48.764;8.936;2023-02-18T06:53:20;97750;;;10.4;70
68489;BME280;55481;48.764;8.936;2023-02-18T06:55:51;97750;;;10.5;70
68489;BME280;55481;48.764;8.936;2023-02-18T06:58:29;97750;;;10.4;70
68489;BME280;55481;48.764;8.936;2023-02-18T07:03:17;97750;;;10.5;70
68489;BME280;55481;48.764;8.936;2023-02-18T07:05:48;97740;;;10.5;70
68489;BME280;55481;48.764;8.936;2023-02-18T07:08:19;97740;;;10.6;70
68489;BME280;55481;48.764;8.936;2023-02-18T07:10:50;97740;;;10.7;69.5
68489;BME280;55481;48.764;8.936;2023-02-18T07:13:20;97740;;;10.8;69.5
68489;BME280;55481;48.764;8.936;2023-02-18T07:15:51;97750;;;10.8;69.5
68489;BME280;55481;48.764;8.936;2023-02-18T07:18:22;97740;;;10.8;69.5
68489;BME280;55481;48.764;8.936;2023-02-18T07:20:52;97730;;;11;69
68489;BME280;55481;48.764;8.936;2023-02-18T07:28:24;97730;;;11.2;69
68489;BME280;55481;48.764;8.936;2023-02-18T07:36:09;97720;;;11.3;69
68489;BME280;55481;48.764;8.936;2023-02-18T07:38:40;97720;;;11.3;69
68489;BME280;55481;48.764;8.936;2023-02-18T07:41:04;97720;;;11.3;69
68489;BME280;55481;48.764;8.936;2023-02-18T07:43:35;97720;;;11.4;69
68489;BME280;55481;48.764;8.936;2023-02-18T07:46:06;97720;;;11.5;68.5
68489;BME280;55481;48.764;8.936;2023-02-18T07:48:37;97710;;;11.6;68.5
68489;BME280;55481;48.764;8.936;2023-02-18T07:51:08;97710;;;11.5;68.5
68489;BME280;55481;48.764;8.936;2023-02-18T07:53:39;97720;;;11.6;68.5
68489;BME280;55481;48.764;8.936;2023-02-18T07:56:16;97710;;;11.6;68.5
68489;BME280;55481;48.764;8.936;2023-02-18T08:01:13;97710;;;11.6;69
68489;BME280;55481;48.764;8.936;2023-02-18T08:03:42;97710;;;11.6;69
68489;BME280;55481;48.764;8.936;2023-02-18T08:06:21;97710;;;11.6;69
68489;BME280;55481;48.764;8.936;2023-02-18T08:08:45;97710;;;11.6;69
68489;BME280;55481;48.764;8.936;2023-02-18T08:11:16;97710;;;11.6;69
68489;BME280;55481;48.764;8.936;2023-02-18T08:13:47;97710;;;11.6;69
68489;BME280;55481;48.764;8.936;2023-02-18T08:18:49;97710;;;11.6;69
68489;BME280;55481;48.764;8.936;2023-02-18T08:21:20;97720;;;11.7;69
68489;BME280;55481;48.764;8.936;2023-02-18T08:23:50;97720;;;11.7;69
68489;BME280;55481;48.764;8.936;2023-02-18T08:31:42;97710;;;11.7;69
68489;BME280;55481;48.764;8.936;2023-02-18T08:33:59;97710;;;11.7;69
68489;BME280;55481;48.764;8.936;2023-02-18T08:36:29;97700;;;11.6;69
68489;BME280;55481;48.764;8.936;2023-02-18T08:41:23;97700;;;11.7;69
68489;BME280;55481;48.764;8.936;2023-02-18T08:43:54;97700;;;11.8;69
68489;BME280;55481;48.764;8.936;2023-02-18T08:46:25;97700;;;11.8;69
68489;BME280;55481;48.764;8.936;2023-02-18T08:56:40;97700;;;11.8;69
68489;BME280;55481;48.764;8.936;2023-02-18T08:59:16;97690;;;11.8;69
68489;BME280;55481;48.764;8.936;2023-02-18T09:03:58;97690;;;11.8;69
68489;BME280;55481;48.764;8.936;2023-02-18T09:06:29;97680;;;11.9;69
68489;BME280;55481;48.764;8.936;2023-02-18T09:09:00;97680;;;12;68.5
68489;BME280;55481;48.764;8.936;2023-02-18T09:11:24;97680;;;12;68.5
68489;BME280;55481;48.764;8.936;2023-02-18T09:13:54;97680;;;12.1;68.5
68489;BME280;55481;48.764;8.936;2023-02-18T09:24:17;97670;;;12.3;68.5
68489;BME280;55481;48.764;8.936;2023-02-18T09:26:53;97670;;;12.3;68.5
68489;BME280;55481;48.764;8.936;2023-02-18T09:31:41;97660;;;12.4;68.5
68489;BME280;55481;48.764;8.936;2023-02-18T09:36:34;97660;;;12.3;68.5
68489;BME280;55481;48.764;8.936;2023-02-18T09:39:05;97660;;;12.3;68.5
68489;BME280;55481;48.764;8.936;2023-02-18T09:41:44;97660;;;12.3;68.5
68489;BME280;55481;48.764;8.936;2023-02-18T09:44:24;97670;;;12.3;68.5
68489;BME280;55481;48.764;8.936;2023-02-18T09:46:47;97660;;;12.3;68.5
68489;BME280;55481;48.764;8.936;2023-02-18T09:49:15;97660;;;12.3;68.5
68489;BME280;55481;48.764;8.936;2023-02-18T09:51:52;97670;;;12.4;68.5
68489;BME280;55481;48.764;8.936;2023-02-18T09:56:38;97670;;;12.4;68.5
68489;BME280;55481;48.764;8.936;2023-02-18T09:59:14;97660;;;12.5;68.5
68489;BME280;55481;48.764;8.936;2023-02-18T10:01:40;97670;;;12.5;68
68489;BME280;55481;48.764;8.936;2023-02-18T10:04:09;97670;;;12.6;68
68489;BME280;55481;48.764;8.936;2023-02-18T10:06:35;97660;;;12.6;68
68489;BME280;55481;48.764;8.936;2023-02-18T10:16:38;97650;;;12.7;68
68489;BME280;55481;48.764;8.936;2023-02-18T10:19:40;97650;;;12.6;68
68489;BME280;55481;48.764;8.936;2023-02-18T10:21:39;97650;;;12.6;68
68489;BME280;55481;48.764;8.936;2023-02-18T10:26:54;97650;;;12.8;68
68489;BME280;55481;48.764;8.936;2023-02-18T10:29:24;97660;;;12.9;68
68489;BME280;55481;48.764;8.936;2023-02-18T10:31:58;97660;;;13;67.5
68489;BME280;55481;48.764;8.936;2023-02-18T10:34:23;97660;;;13;67.5
68489;BME280;55481;48.764;8.936;2023-02-18T10:36:54;97660;;;13;67.5
68489;BME280;55481;48.764;8.936;2023-02-18T10:39:35;97660;;;13;67.5
68489;BME280;55481;48.764;8.936;2023-02-18T10:47:15;97660;;;13;68
68489;BME280;55481;48.764;8.936;2023-02-18T10:49:33;97660;;;13;68
68489;BME280;55481;48.764;8.936;2023-02-18T10:54:24;97650;;;13.1;67.5
68489;BME280;55481;48.764;8.936;2023-02-18T10:56:58;97650;;;13.1;67.5
68489;BME280;55481;48.764;8.936;2023-02-18T11:02:13;97640;;;13.1;68
68489;BME280;55481;48.764;8.936;2023-02-18T11:09:39;97630;;;13.6;67
68489;BME280;55481;48.764;8.936;2023-02-18T11:12:03;97620;;;13.6;67
68489;BME280;55481;48.764;8.936;2023-02-18T11:15:27;97630;;;13.5;67
68489;BME280;55481;48.764;8.936;2023-02-18T11:16:54;97620;;;13.5;67.5
68489;BME280;55481;48.764;8.936;2023-02-18T11:19:33;97620;;;13.5;67.5
68489;BME280;55481;48.764;8.936;2023-02-18T11:22:10;97620;;;13.6;67
68489;BME280;55481;48.764;8.936;2023-02-18T11:24:36;97620;;;13.7;67
68489;BME280;55481;48.764;8.936;2023-02-18T11:29:29;97610;;;13.7;67
68489;BME280;55481;48.764;8.936;2023-02-18T11:31:59;97590;;;13.8;67
68489;BME280;55481;48.764;8.936;2023-02-18T11:34:30;97600;;;13.7;67
68489;BME280;55481;48.764;8.936;2023-02-18T11:37:18;97590;;;13.6;67
68489;BME280;55481;48.764;8.936;2023-02-18T11:39:32;97580;;;13.9;66.5
68489;BME280;55481;48.764;8.936;2023-02-18T11:42:04;97580;;;14.4;65.5
68489;BME280;55481;48.764;8.936;2023-02-18T11:44:37;97580;;;14.1;66
68489;BME280;55481;48.764;8.936;2023-02-18T11:47:05;97580;;;14.1;66.5
68489;BME280;55481;48.764;8.936;2023-02-18T11:59:44;97580;;;14;66.5
68489;BME280;55481;48.764;8.936;2023-02-18T12:04:49;97580;;;14;67
68489;BME280;55481;48.764;8.936;2023-02-18T12:09:55;97580;;;14;66.5
68489;BME280;55481;48.764;8.936;2023-02-18T12:12:26;97580;;;13.9;67
68489;BME280;55481;48.764;8.936;2023-02-18T12:14:48;97560;;;13.8;67
68489;BME280;55481;48.764;8.936;2023-02-18T12:19:59;97580;;;13.9;67
68489;BME280;55481;48.764;8.936;2023-02-18T12:22:32;97580;;;14;66.5
68489;BME280;55481;48.764;8.936;2023-02-18T12:27:38;97580;;;13.9;66.5
68489;BME280;55481;48.764;8.936;2023-02-18T12:35:14;97570;;;13.6;67.5
68489;BME280;55481;48.764;8.936;2023-02-18T12:41:06;97570;;;13.5;67.5
68489;BME280;55481;48.764;8.936;2023-02-18T12:50:08;97570;;;13.4;67.5
68489;BME280;55481;48.764;8.936;2023-02-18T12:55:04;97560;;;13.3;67.5
68489;BME280;55481;48.764;8.936;2023-02-18T13:02:40;97560;;;13.2;67
68489;BME280;55481;48.764;8.936;2023-02-18T13:05:17;97570;;;13.2;67
68489;BME280;55481;48.764;8.936;2023-02-18T13:07:38;97560;;;13.2;67
68489;BME280;55481;48.764;8.936;2023-02-18T13:10:11;97570;;;13.3;67
68489;BME280;55481;48.764;8.936;2023-02-18T13:12:34;97550;;;13.2;67
68489;BME280;55481;48.764;8.936;2023-02-18T13:15:26;97560;;;13.2;67
68489;BME280;55481;48.764;8.936;2023-02-18T13:17:38;97550;;;13.1;67
68489;BME280;55481;48.764;8.936;2023-02-18T13:25:11;97550;;;13.2;66.5
68489;BME280;55481;48.764;8.936;2023-02-18T13:27:42;97540;;;13.2;66.5
68489;BME280;55481;48.764;8.936;2023-02-18T13:32:36;97540;;;13.3;66.5
68489;BME280;55481;48.764;8.936;2023-02-18T13:37:40;97520;;;13.5;66
68489;BME280;55481;48.764;8.936;2023-02-18T13:40:13;97550;;;13.6;66
68489;BME280;55481;48.764;8.936;2023-02-18T13:42:38;97520;;;13.6;66
68489;BME280;55481;48.764;8.936;2023-02-18T13:45:31;97540;;;13.6;66
68489;BME280;55481;48.764;8.936;2023-02-18T13:50:13;97520;;;13.5;66.5
68489;BME280;55481;48.764;8.936;2023-02-18T13:52:42;97520;;;13.5;66.5
68489;BME280;55481;48.764;8.936;2023-02-18T13:55:16;97530;;;13.6;66.5
68489;BME280;55481;48.764;8.936;2023-02-18T13:57:45;97530;;;13.6;66
68489;BME280;55481;48.764;8.936;2023-02-18T14:00:19;97520;;;13.6;66
68489;BME280;55481;48.764;8.936;2023-02-18T14:03:16;97510;;;13.6;66.5
68489;BME280;55481;48.764;8.936;2023-02-18T14:05:21;97510;;;13.8;66
68489;BME280;55481;48.764;8.936;2023-02-18T14:08:51;97510;;;13.7;66
68489;BME280;55481;48.764;8.936;2023-02-18T14:10:25;97500;;;13.7;66
68489;BME280;55481;48.764;8.936;2023-02-18T14:13:23;97500;;;13.6;66.5
68489;BME280;55481;48.764;8.936;2023-02-18T14:20:42;97480;;;13.6;66.5
